createdAt,value
2023-01-01T00:00:38.931Z,100.00
2023-01-01T00:01:42.812Z,100.00
2023-01-01T00:02:46.144Z,100.00
2023-01-01T00:03:55.936Z,100.00
2023-01-01T00:04:59.227Z,100.00
2023-01-01T00:06:09.460Z,100.00
2023-01-01T00:07:12.661Z,100.00
2023-01-01T00:08:15.766Z,100.00
2023-01-01T00:09:37.479Z,100.00
2023-01-01T00:10:40.239Z,100.00
2023-01-01T00:11:42.901Z,100.00
2023-01-01T00:12:46.353Z,100.00
2023-01-01T00:13:49.980Z,100.00
2023-01-01T00:14:52.795Z,100.00
2023-01-01T00:15:55.905Z,100.00
2023-01-01T00:16:58.744Z,100.00
2023-01-01T00:18:01.801Z,100.00
2023-01-01T00:19:05.484Z,100.00
2023-01-01T00:20:08.588Z,100.00
2023-01-01T00:21:14.810Z,100.00
2023-01-01T00:22:52.887Z,100.00
2023-01-01T00:23:41.550Z,100.00
2023-01-01T00:24:44.600Z,100.00
2023-01-01T00:25:47.334Z,100.00
2023-01-01T00:26:50.123Z,100.00
2023-01-01T00:27:53.621Z,100.00
2023-01-01T00:28:56.636Z,100.00
2023-01-01T00:29:59.492Z,100.00
2023-01-01T00:31:19.717Z,100.00
2023-01-01T00:32:23.183Z,100.00
2023-01-01T00:33:26.121Z,100.00
2023-01-01T00:34:29.606Z,100.00
2023-01-01T00:35:33.913Z,100.00
2023-01-01T00:36:37.300Z,100.00
2023-01-01T00:37:46.415Z,100.00
2023-01-01T00:38:49.824Z,100.00
2023-01-01T00:39:53.600Z,100.00
2023-01-01T00:40:56.307Z,100.00
2023-01-01T00:41:59.698Z,100.00
2023-01-01T00:43:02.504Z,100.00
2023-01-01T00:44:05.359Z,100.00
2023-01-01T00:45:09.392Z,100.00
2023-01-01T00:46:13.020Z,100.00
2023-01-01T00:47:15.915Z,100.00
2023-01-01T00:48:19.795Z,100.00
2023-01-01T00:49:22.857Z,100.00
2023-01-01T00:50:26.576Z,100.00
2023-01-01T00:51:34.876Z,100.00
2023-01-01T00:52:40.071Z,100.00
2023-01-01T00:53:42.866Z,100.00
2023-01-01T00:54:45.649Z,100.00
2023-01-01T00:55:51.166Z,100.00
2023-01-01T00:56:53.970Z,100.00
2023-01-01T00:57:56.841Z,100.00
2023-01-01T00:59:00.737Z,100.00
2023-01-01T01:00:05.971Z,100.00
2023-01-01T01:01:11.981Z,100.00
2023-01-01T01:02:15.118Z,100.00
2023-01-01T01:03:31.174Z,100.00
2023-01-01T01:04:33.924Z,100.00
2023-01-01T01:05:39.005Z,100.00
2023-01-01T01:06:42.503Z,100.00
2023-01-01T01:07:45.183Z,100.00
2023-01-01T01:08:48.411Z,100.00
2023-01-01T01:09:51.173Z,100.00
2023-01-01T01:10:54.773Z,100.00
2023-01-01T01:12:17.268Z,100.00
2023-01-01T01:13:21.113Z,100.00
2023-01-01T01:14:23.863Z,100.00
2023-01-01T01:15:26.581Z,100.00
2023-01-01T01:16:34.629Z,100.00
2023-01-01T01:17:38.647Z,100.00
2023-01-01T01:18:41.950Z,100.00
2023-01-01T01:19:46.374Z,100.00
2023-01-01T01:20:53.963Z,100.00
2023-01-01T01:21:56.970Z,100.00
2023-01-01T01:23:00.131Z,100.00
2023-01-01T01:24:04.130Z,100.00
2023-01-01T01:25:07.516Z,100.00
2023-01-01T01:26:13.569Z,100.00
2023-01-01T01:27:17.491Z,100.00
2023-01-01T01:28:22.716Z,100.00
2023-01-01T01:29:25.775Z,100.00
2023-01-01T01:30:28.543Z,100.00
2023-01-01T01:31:32.609Z,100.00
2023-01-01T01:32:35.643Z,100.00
2023-01-01T01:33:38.941Z,100.00
2023-01-01T01:34:41.837Z,100.00
2023-01-01T01:35:52.101Z,100.00
2023-01-01T01:36:54.947Z,100.00
2023-01-01T01:37:58.180Z,100.00
2023-01-01T01:39:01.419Z,100.00
2023-01-01T01:40:05.513Z,100.00
2023-01-01T01:41:08.834Z,100.00
2023-01-01T01:42:18.538Z,100.00
2023-01-01T01:43:46.907Z,100.00
2023-01-01T01:44:57.202Z,100.00
2023-01-01T01:46:12.698Z,100.00
2023-01-01T01:47:32.092Z,100.00
2023-01-01T01:48:41.200Z,100.00
2023-01-01T01:49:45.479Z,100.00
2023-01-01T01:50:50.250Z,100.00
2023-01-01T01:51:54.163Z,100.00
2023-01-01T01:53:08.717Z,100.00
2023-01-01T01:54:17.505Z,100.00
2023-01-01T01:55:20.846Z,100.00
2023-01-01T01:56:59.971Z,100.00
2023-01-01T01:58:04.727Z,100.00
2023-01-01T01:59:07.682Z,100.00
2023-01-01T02:00:12.115Z,100.00
2023-01-01T02:01:15.849Z,100.00
2023-01-01T02:02:48.404Z,100.00
2023-01-01T02:04:00.115Z,100.00
2023-01-01T02:05:04.255Z,100.00
2023-01-01T02:06:07.112Z,100.00
2023-01-01T02:07:13.852Z,100.00
2023-01-01T02:08:16.928Z,100.00
2023-01-01T02:09:21.116Z,100.00
2023-01-01T02:10:23.890Z,100.00
2023-01-01T02:11:26.674Z,100.00
2023-01-01T02:12:30.038Z,100.00
2023-01-01T02:13:33.070Z,100.00
2023-01-01T02:14:35.779Z,100.00
2023-01-01T02:15:48.607Z,100.00
2023-01-01T02:17:00.683Z,100.00
2023-01-01T02:18:12.035Z,100.00
2023-01-01T02:19:41.940Z,100.00
2023-01-01T02:22:47.004Z,100.00
2023-01-01T02:24:27.305Z,100.00
2023-01-01T02:25:52.388Z,100.00
2023-01-01T02:27:01.398Z,100.00
2023-01-01T02:28:24.098Z,100.00
2023-01-01T02:29:36.121Z,100.00
2023-01-01T02:30:41.862Z,100.00
2023-01-01T02:32:09.910Z,100.00
2023-01-01T02:33:18.398Z,100.00
2023-01-01T02:34:25.409Z,100.00
2023-01-01T02:35:38.871Z,100.00
2023-01-01T02:36:48.757Z,100.00
2023-01-01T02:37:58.100Z,100.00
2023-01-01T02:39:04.281Z,100.00
2023-01-01T02:40:08.104Z,100.00
2023-01-01T02:41:16.080Z,100.00
2023-01-01T02:42:19.873Z,100.00
2023-01-01T02:43:24.983Z,100.00
2023-01-01T02:44:32.352Z,100.00
2023-01-01T02:45:35.961Z,100.00
2023-01-01T02:46:39.386Z,100.00
2023-01-01T02:47:42.217Z,100.00
2023-01-01T02:48:47.420Z,100.00
2023-01-01T02:50:00.009Z,100.00
2023-01-01T02:51:09.747Z,100.00
2023-01-01T02:52:42.896Z,100.00
2023-01-01T02:54:13.091Z,100.00
2023-01-01T02:55:32.703Z,100.00
2023-01-01T02:56:46.234Z,100.00
2023-01-01T02:58:31.584Z,100.00
2023-01-01T03:00:15.003Z,100.00
2023-01-01T03:01:35.220Z,100.00
2023-01-01T03:03:14.110Z,100.00
2023-01-01T03:05:05.289Z,100.00
2023-01-01T03:06:28.173Z,100.00
2023-01-01T03:07:56.238Z,100.00
2023-01-01T03:09:12.760Z,100.00
2023-01-01T03:10:23.234Z,100.00
2023-01-01T03:11:32.928Z,100.00
2023-01-01T03:13:07.103Z,100.00
2023-01-01T03:14:28.077Z,100.00
2023-01-01T03:16:04.771Z,100.00
2023-01-01T03:17:27.530Z,100.00
2023-01-01T03:39:06.377Z,100.00
2023-01-01T03:40:10.793Z,100.00
2023-01-01T03:56:52.770Z,100.00
2023-01-01T03:58:10.606Z,100.00
2023-01-01T03:59:31.207Z,100.00
2023-01-01T04:00:38.153Z,100.00
2023-01-01T04:01:45.300Z,100.00
2023-01-01T04:03:04.425Z,100.00
2023-01-01T04:04:08.111Z,100.00
2023-01-01T04:05:12.472Z,100.00
2023-01-01T04:06:16.208Z,100.00
2023-01-01T04:07:20.616Z,100.00
2023-01-01T04:08:23.673Z,100.00
2023-01-01T04:09:31.562Z,100.00
2023-01-01T04:10:38.594Z,100.00
2023-01-01T04:12:04.246Z,100.00
2023-01-01T04:13:07.694Z,100.00
2023-01-01T04:14:10.441Z,100.00
2023-01-01T04:15:14.129Z,100.00
2023-01-01T04:16:16.966Z,100.00
2023-01-01T04:17:19.768Z,100.00
2023-01-01T04:18:23.179Z,100.00
2023-01-01T04:19:26.141Z,100.00
2023-01-01T04:20:29.000Z,100.00
2023-01-01T04:21:32.753Z,100.00
2023-01-01T04:22:35.952Z,100.00
2023-01-01T04:23:39.027Z,100.00
2023-01-01T04:24:42.492Z,100.00
2023-01-01T04:25:45.235Z,100.00
2023-01-01T04:26:48.776Z,100.00
2023-01-01T04:27:51.601Z,100.00
2023-01-01T04:28:55.083Z,100.00
2023-01-01T04:29:57.820Z,100.00
2023-01-01T04:31:03.020Z,100.00
2023-01-01T04:32:06.160Z,100.00
2023-01-01T04:33:08.895Z,100.00
2023-01-01T04:34:12.089Z,100.00
2023-01-01T04:35:15.196Z,100.00
2023-01-01T04:36:18.003Z,100.00
2023-01-01T04:37:20.782Z,100.00
2023-01-01T04:38:24.025Z,100.00
2023-01-01T04:39:27.019Z,100.00
2023-01-01T04:40:29.726Z,100.00
2023-01-01T04:41:33.285Z,100.00
2023-01-01T04:42:35.993Z,100.00
2023-01-01T04:43:38.736Z,100.00
2023-01-01T04:44:42.245Z,100.00
2023-01-01T04:45:45.067Z,100.00
2023-01-01T04:46:48.205Z,100.00
2023-01-01T04:47:51.095Z,100.00
2023-01-01T04:48:54.112Z,100.00
2023-01-01T04:49:57.160Z,100.00
2023-01-01T04:51:02.190Z,100.00
2023-01-01T04:52:05.678Z,100.00
2023-01-01T04:53:08.439Z,100.00
2023-01-01T04:54:11.204Z,100.00
2023-01-01T04:55:14.877Z,100.00
2023-01-01T04:56:20.448Z,100.00
2023-01-01T04:57:23.430Z,100.00
2023-01-01T04:58:26.763Z,100.00
2023-01-01T04:59:31.026Z,100.00
2023-01-01T05:00:34.014Z,100.00
2023-01-01T05:01:36.893Z,100.00
2023-01-01T05:02:40.312Z,100.00
2023-01-01T05:03:43.191Z,100.00
2023-01-01T05:04:46.017Z,100.00
2023-01-01T05:06:02.787Z,100.00
2023-01-01T05:07:05.680Z,100.00
2023-01-01T05:08:08.447Z,100.00
2023-01-01T05:09:12.084Z,100.00
2023-01-01T05:10:15.464Z,100.00
2023-01-01T05:11:24.010Z,100.00
2023-01-01T05:12:26.757Z,100.00
2023-01-01T05:13:30.378Z,100.00
2023-01-01T05:14:33.986Z,100.00
2023-01-01T05:15:37.493Z,100.00
2023-01-01T05:16:41.207Z,100.00
2023-01-01T05:17:44.218Z,100.00
2023-01-01T05:18:47.567Z,100.00
2023-01-01T05:19:50.867Z,100.00
2023-01-01T05:20:53.630Z,100.00
2023-01-01T05:21:57.241Z,100.00
2023-01-01T05:23:00.039Z,100.00
2023-01-01T05:24:06.934Z,100.00
2023-01-01T05:25:10.120Z,100.00
2023-01-01T05:26:16.156Z,100.00
2023-01-01T05:27:19.939Z,100.00
2023-01-01T05:28:24.114Z,100.00
2023-01-01T05:29:27.172Z,100.00
2023-01-01T05:30:30.883Z,100.00
2023-01-01T05:31:36.465Z,100.00
2023-01-01T05:32:39.829Z,100.00
2023-01-01T05:33:43.149Z,100.00
2023-01-01T05:34:46.878Z,100.00
2023-01-01T05:35:55.333Z,100.00
2023-01-01T05:36:58.852Z,100.00
2023-01-01T05:38:04.156Z,100.00
2023-01-01T05:39:10.109Z,100.00
2023-01-01T05:40:13.251Z,100.00
2023-01-01T05:41:17.434Z,100.00
2023-01-01T05:42:20.560Z,100.00
2023-01-01T05:43:24.372Z,100.00
2023-01-01T05:44:27.105Z,100.00
2023-01-01T05:45:29.824Z,100.00
2023-01-01T05:46:33.021Z,100.00
2023-01-01T05:47:35.827Z,100.00
2023-01-01T05:48:39.370Z,100.00
2023-01-01T05:49:42.156Z,100.00
2023-01-01T05:50:48.364Z,100.00
2023-01-01T05:51:52.110Z,100.00
2023-01-01T05:52:55.517Z,100.00
2023-01-01T05:53:59.216Z,100.00
2023-01-01T05:55:03.038Z,100.00
2023-01-01T05:56:07.531Z,100.00
2023-01-01T05:57:10.918Z,100.00
2023-01-01T05:58:13.767Z,100.00
2023-01-01T05:59:16.765Z,100.00
2023-01-01T06:00:19.839Z,100.00
2023-01-01T06:01:26.307Z,100.00
2023-01-01T06:02:31.612Z,100.00
2023-01-01T06:03:35.529Z,100.00
2023-01-01T06:04:38.371Z,100.00
2023-01-01T06:05:41.575Z,100.00
2023-01-01T06:06:44.598Z,100.00
2023-01-01T06:07:48.753Z,100.00
2023-01-01T06:08:54.430Z,100.00
2023-01-01T06:09:57.483Z,100.00
2023-01-01T06:11:05.377Z,100.00
2023-01-01T06:12:08.485Z,100.00
2023-01-01T06:13:13.572Z,100.00
2023-01-01T06:14:16.459Z,100.00
2023-01-01T06:15:19.135Z,100.00
2023-01-01T06:16:22.984Z,100.00
2023-01-01T06:17:26.098Z,100.00
2023-01-01T06:18:34.197Z,100.00
2023-01-01T06:19:37.237Z,100.00
2023-01-01T06:20:40.500Z,100.00
2023-01-01T06:21:43.216Z,100.00
2023-01-01T06:22:46.355Z,100.00
2023-01-01T06:23:49.891Z,100.00
2023-01-01T06:24:52.613Z,100.00
2023-01-01T06:25:56.540Z,100.00
2023-01-01T06:26:59.424Z,100.00
2023-01-01T06:28:02.834Z,100.00
2023-01-01T06:29:05.933Z,100.00
2023-01-01T06:30:10.043Z,100.00
2023-01-01T06:31:15.672Z,100.00
2023-01-01T06:32:18.714Z,100.00
2023-01-01T06:33:21.703Z,100.00
2023-01-01T06:34:25.287Z,100.00
2023-01-01T06:35:28.735Z,100.00
2023-01-01T06:36:31.862Z,100.00
2023-01-01T06:37:34.703Z,100.00
2023-01-01T06:38:41.093Z,100.00
2023-01-01T06:39:43.888Z,100.00
2023-01-01T06:41:00.848Z,100.00
2023-01-01T06:42:03.777Z,100.00
2023-01-01T06:43:06.547Z,100.00
2023-01-01T06:44:09.909Z,100.00
2023-01-01T06:45:13.436Z,100.00
2023-01-01T06:46:19.219Z,100.00
2023-01-01T06:47:22.087Z,100.00
2023-01-01T06:48:25.177Z,100.00
2023-01-01T06:49:28.262Z,100.00
2023-01-01T06:50:31.422Z,100.00
2023-01-01T06:51:39.838Z,100.00
2023-01-01T06:52:42.921Z,100.00
2023-01-01T06:53:46.468Z,100.00
2023-01-01T06:54:49.826Z,100.00
2023-01-01T06:55:57.375Z,100.00
2023-01-01T06:57:00.392Z,100.00
2023-01-01T06:58:03.117Z,100.00
2023-01-01T06:59:06.544Z,100.00
2023-01-01T07:00:10.357Z,100.00
2023-01-01T07:01:19.238Z,100.00
2023-01-01T07:02:22.339Z,100.00
2023-01-01T07:03:25.318Z,100.00
2023-01-01T07:04:28.103Z,100.00
2023-01-01T07:05:31.544Z,100.00
2023-01-01T07:06:35.518Z,100.00
2023-01-01T07:07:38.441Z,100.00
2023-01-01T07:08:41.254Z,100.00
2023-01-01T07:09:43.978Z,100.00
2023-01-01T07:10:46.994Z,100.00
2023-01-01T07:11:50.500Z,100.00
2023-01-01T07:12:53.185Z,100.00
2023-01-01T07:13:56.058Z,100.00
2023-01-01T07:14:59.272Z,100.00
2023-01-01T07:16:08.370Z,100.00
2023-01-01T07:17:15.630Z,100.00
2023-01-01T07:18:19.663Z,100.00
2023-01-01T07:19:22.819Z,100.00
2023-01-01T07:20:25.464Z,100.00
2023-01-01T07:21:31.250Z,100.00
2023-01-01T07:22:35.913Z,100.00
2023-01-01T07:23:38.756Z,100.00
2023-01-01T07:24:42.048Z,100.00
2023-01-01T07:25:44.920Z,100.00
2023-01-01T07:26:49.183Z,100.00
2023-01-01T07:27:51.897Z,100.00
2023-01-01T07:28:55.715Z,100.00
2023-01-01T07:30:01.493Z,100.00
2023-01-01T07:31:04.467Z,100.00
2023-01-01T07:32:13.204Z,100.00
2023-01-01T07:33:19.776Z,100.00
2023-01-01T07:34:23.969Z,100.00
2023-01-01T07:35:26.755Z,100.00
2023-01-01T07:36:30.138Z,100.00
2023-01-01T07:37:33.306Z,100.00
2023-01-01T07:38:36.507Z,100.00
2023-01-01T07:39:39.806Z,100.00
2023-01-01T07:40:43.158Z,100.00
2023-01-01T07:41:45.993Z,100.00
2023-01-01T07:42:49.372Z,100.00
2023-01-01T07:43:52.491Z,100.00
2023-01-01T07:44:55.194Z,100.00
2023-01-01T07:45:59.172Z,100.00
2023-01-01T07:47:04.926Z,100.00
2023-01-01T07:48:13.685Z,100.00
2023-01-01T07:49:17.301Z,100.00
2023-01-01T07:50:21.897Z,100.00
2023-01-01T07:51:25.139Z,100.00
2023-01-01T07:52:28.621Z,100.00
2023-01-01T07:53:31.666Z,100.00
2023-01-01T07:54:34.836Z,100.00
2023-01-01T07:55:37.856Z,100.00
2023-01-01T07:56:40.703Z,100.00
2023-01-01T07:57:44.401Z,100.00
2023-01-01T07:58:47.436Z,100.00
2023-01-01T07:59:50.296Z,100.00
2023-01-01T08:00:53.303Z,100.00
2023-01-01T08:01:56.844Z,100.00
2023-01-01T08:03:00.015Z,100.00
2023-01-01T08:04:03.862Z,100.00
2023-01-01T08:05:07.189Z,100.00
2023-01-01T08:06:12.228Z,100.00
2023-01-01T08:07:15.788Z,100.00
2023-01-01T08:08:18.491Z,100.00
2023-01-01T08:09:21.987Z,100.00
2023-01-01T08:10:24.819Z,100.00
2023-01-01T08:11:28.693Z,100.00
2023-01-01T08:12:31.937Z,100.00
2023-01-01T08:13:35.230Z,100.00
2023-01-01T08:14:37.983Z,100.00
2023-01-01T08:15:41.192Z,100.00
2023-01-01T08:16:44.043Z,100.00
2023-01-01T08:17:48.343Z,100.00
2023-01-01T08:18:51.171Z,100.00
2023-01-01T08:19:54.345Z,100.00
2023-01-01T08:20:57.689Z,100.00
2023-01-01T08:22:00.812Z,100.00
2023-01-01T08:23:07.433Z,100.00
2023-01-01T08:24:11.082Z,100.00
2023-01-01T08:25:14.544Z,100.00
2023-01-01T08:26:26.682Z,100.00
2023-01-01T08:27:30.000Z,100.00
2023-01-01T08:28:33.674Z,100.00
2023-01-01T08:29:37.066Z,100.00
2023-01-01T08:30:41.046Z,100.00
2023-01-01T08:31:44.623Z,100.00
2023-01-01T08:32:49.359Z,100.00
2023-01-01T08:33:53.097Z,100.00
2023-01-01T08:34:56.632Z,100.00
2023-01-01T08:36:00.166Z,100.00
2023-01-01T08:37:03.734Z,100.00
2023-01-01T08:38:06.482Z,100.00
2023-01-01T08:39:10.101Z,100.00
2023-01-01T08:40:13.843Z,100.00
2023-01-01T08:41:17.706Z,100.00
2023-01-01T08:42:20.820Z,100.00
2023-01-01T08:43:23.626Z,100.00
2023-01-01T08:44:26.617Z,100.00
2023-01-01T08:45:29.994Z,100.00
2023-01-01T08:46:33.687Z,100.00
2023-01-01T08:47:36.979Z,100.00
2023-01-01T08:48:41.228Z,100.00
2023-01-01T08:49:45.151Z,100.00
2023-01-01T08:51:00.321Z,100.00
2023-01-01T08:52:03.652Z,100.00
2023-01-01T08:53:07.154Z,100.00
2023-01-01T08:54:10.902Z,100.00
2023-01-01T08:55:13.907Z,100.00
2023-01-01T08:56:17.028Z,100.00
2023-01-01T08:57:22.956Z,100.00
2023-01-01T08:58:26.615Z,100.00
2023-01-01T08:59:29.446Z,100.00
2023-01-01T09:00:32.901Z,100.00
2023-01-01T09:01:35.731Z,100.00
2023-01-01T09:02:38.713Z,100.00
2023-01-01T09:03:41.828Z,100.00
2023-01-01T09:04:44.680Z,100.00
2023-01-01T09:05:47.847Z,100.00
2023-01-01T09:06:51.063Z,100.00
2023-01-01T09:07:53.796Z,100.00
2023-01-01T09:08:57.769Z,100.00
2023-01-01T09:10:00.548Z,100.00
2023-01-01T09:11:04.443Z,100.00
2023-01-01T09:12:09.294Z,100.00
2023-01-01T09:13:13.124Z,100.00
2023-01-01T09:14:15.898Z,100.00
2023-01-01T09:15:18.685Z,100.00
2023-01-01T09:16:23.087Z,100.00
2023-01-01T09:17:26.123Z,100.00
2023-01-01T09:18:28.929Z,100.00
2023-01-01T09:19:31.749Z,100.00
2023-01-01T09:20:34.726Z,100.00
2023-01-01T09:21:37.968Z,100.00
2023-01-01T09:22:40.729Z,100.00
2023-01-01T09:23:43.621Z,100.00
2023-01-01T09:24:46.301Z,100.00
2023-01-01T09:25:49.058Z,100.00
2023-01-01T09:26:52.129Z,100.00
2023-01-01T09:28:01.775Z,100.00
2023-01-01T09:29:04.635Z,100.00
2023-01-01T09:30:08.485Z,100.00
2023-01-01T09:31:12.756Z,100.00
2023-01-01T09:32:15.868Z,100.00
2023-01-01T09:33:18.745Z,100.00
2023-01-01T09:34:22.924Z,100.00
2023-01-01T09:35:25.737Z,100.00
2023-01-01T09:36:31.091Z,100.00
2023-01-01T09:37:34.832Z,100.00
2023-01-01T09:38:38.123Z,100.00
2023-01-01T09:39:41.010Z,100.00
2023-01-01T09:41:11.480Z,100.00
2023-01-01T09:42:23.405Z,100.00
2023-01-01T09:43:32.953Z,100.00
2023-01-01T09:44:50.069Z,100.00
2023-01-01T09:45:59.072Z,100.00
2023-01-01T09:47:06.077Z,100.00
2023-01-01T09:48:13.634Z,100.00
2023-01-01T09:49:30.443Z,100.00
2023-01-01T09:50:40.955Z,100.00
2023-01-01T09:51:55.580Z,100.00
2023-01-01T09:53:07.121Z,100.00
2023-01-01T09:54:18.804Z,100.00
2023-01-01T09:55:42.069Z,100.00
2023-01-01T09:56:45.988Z,100.00
2023-01-01T09:57:48.798Z,100.00
2023-01-01T09:58:52.228Z,100.00
2023-01-01T09:59:56.273Z,100.00
2023-01-01T10:01:05.870Z,100.00
2023-01-01T10:02:34.123Z,100.00
2023-01-01T10:03:56.449Z,100.00
2023-01-01T10:05:41.391Z,100.00
2023-01-01T10:06:51.820Z,100.00
2023-01-01T10:08:10.636Z,100.00
2023-01-01T10:09:48.653Z,100.00
2023-01-01T10:11:23.771Z,100.00
2023-01-01T10:12:35.907Z,100.00
2023-01-01T10:13:43.046Z,100.00
2023-01-01T10:15:00.548Z,100.00
2023-01-01T10:16:11.777Z,100.00
2023-01-01T10:17:27.843Z,100.00
2023-01-01T10:18:34.891Z,100.00
2023-01-01T10:19:43.990Z,100.00
2023-01-01T10:21:24.729Z,100.00
2023-01-01T10:22:43.141Z,100.00
2023-01-01T10:24:00.731Z,100.00
2023-01-01T10:25:24.994Z,100.00
2023-01-01T10:26:30.423Z,100.00
2023-01-01T10:27:51.274Z,100.00
2023-01-01T10:29:03.565Z,100.00
2023-01-01T10:30:19.451Z,100.00
2023-01-01T10:31:31.208Z,100.00
2023-01-01T10:32:36.614Z,100.00
2023-01-01T10:33:40.217Z,100.00
2023-01-01T10:34:43.129Z,100.00
2023-01-01T10:35:50.258Z,100.00
2023-01-01T10:36:57.776Z,100.00
2023-01-01T10:38:02.638Z,100.00
2023-01-01T10:39:05.765Z,100.00
2023-01-01T10:40:24.267Z,100.00
2023-01-01T10:41:27.506Z,100.00
2023-01-01T10:42:30.469Z,100.00
2023-01-01T10:43:33.905Z,100.00
2023-01-01T10:44:37.408Z,100.00
2023-01-01T10:45:49.515Z,100.00
2023-01-01T10:46:58.067Z,100.00
2023-01-01T10:48:20.163Z,100.00
2023-01-01T10:49:23.194Z,100.00
2023-01-01T10:50:42.714Z,100.00
2023-01-01T10:51:48.797Z,100.00
2023-01-01T10:52:57.291Z,100.00
2023-01-01T10:54:00.352Z,100.00
2023-01-01T10:55:05.432Z,100.00
2023-01-01T10:56:11.337Z,100.00
2023-01-01T10:57:31.369Z,100.00
2023-01-01T10:58:37.407Z,100.00
2023-01-01T10:59:42.073Z,100.00
2023-01-01T11:01:01.846Z,100.00
2023-01-01T11:02:26.989Z,100.00
2023-01-01T11:03:30.649Z,100.00
2023-01-01T11:04:36.744Z,100.00
2023-01-01T11:05:39.465Z,100.00
2023-01-01T11:06:47.512Z,100.00
2023-01-01T11:07:50.958Z,100.00
2023-01-01T11:08:57.997Z,100.00
2023-01-01T11:10:05.187Z,100.00
2023-01-01T11:11:25.614Z,100.00
2023-01-01T11:13:03.532Z,100.00
2023-01-01T11:14:01.417Z,100.00
2023-01-01T11:15:06.518Z,100.00
2023-01-01T11:16:12.132Z,100.00
2023-01-01T11:17:22.952Z,100.00
2023-01-01T11:18:36.539Z,100.00
2023-01-01T11:19:48.586Z,100.00
2023-01-01T11:20:55.457Z,100.00
2023-01-01T11:22:00.314Z,100.00
2023-01-01T11:23:38.760Z,100.00
2023-01-01T11:24:41.497Z,100.00
2023-01-01T11:25:58.127Z,100.00
2023-01-01T11:27:25.168Z,100.00
2023-01-01T11:28:31.650Z,100.00
2023-01-01T11:29:34.619Z,100.00
2023-01-01T11:30:37.490Z,100.00
2023-01-01T11:31:40.529Z,100.00
2023-01-01T11:32:44.020Z,100.00
2023-01-01T11:34:02.483Z,100.00
2023-01-01T11:35:08.012Z,100.00
2023-01-01T11:36:11.326Z,100.00
2023-01-01T11:37:14.494Z,100.00
2023-01-01T11:38:29.271Z,100.00
2023-01-01T11:39:37.364Z,100.00
2023-01-01T11:40:47.475Z,100.00
2023-01-01T11:41:52.429Z,100.00
2023-01-01T11:43:02.129Z,100.00
2023-01-01T11:44:05.278Z,100.00
2023-01-01T11:45:39.540Z,100.00
2023-01-01T11:46:46.300Z,100.00
2023-01-01T11:48:17.506Z,100.00
2023-01-01T11:49:27.244Z,100.00
2023-01-01T11:50:34.921Z,100.00
2023-01-01T11:51:37.705Z,100.00
2023-01-01T11:52:49.495Z,100.00
2023-01-01T11:54:07.917Z,100.00
2023-01-01T11:55:17.583Z,100.00
2023-01-01T11:56:23.830Z,100.00
2023-01-01T11:57:27.235Z,100.00
2023-01-01T11:58:36.740Z,100.00
2023-01-01T11:59:52.692Z,100.00
2023-01-01T12:01:01.667Z,100.00
2023-01-01T12:02:11.945Z,100.00
2023-01-01T12:03:18.017Z,99.91
2023-01-01T12:04:33.086Z,99.34
2023-01-01T12:06:01.380Z,99.12
2023-01-01T12:07:06.841Z,98.61
2023-01-01T12:08:17.034Z,98.88
2023-01-01T12:09:51.085Z,98.89
2023-01-01T12:11:05.640Z,98.78
2023-01-01T12:12:31.081Z,97.90
2023-01-01T12:13:44.783Z,98.93
2023-01-01T12:15:05.103Z,98.19
2023-01-01T12:16:14.322Z,98.21
2023-01-01T12:17:26.630Z,97.83
2023-01-01T12:18:41.088Z,98.04
2023-01-01T12:19:54.078Z,98.19
2023-01-01T12:21:05.376Z,97.51
2023-01-01T12:22:17.861Z,96.07
2023-01-01T12:23:21.084Z,96.78
2023-01-01T12:24:29.921Z,95.95
2023-01-01T12:26:11.707Z,95.61
2023-01-01T12:27:24.659Z,96.71
2023-01-01T12:28:35.869Z,97.50
2023-01-01T12:30:02.997Z,96.36
2023-01-01T12:31:28.494Z,95.46
2023-01-01T12:33:08.128Z,95.71
2023-01-01T12:34:18.855Z,95.88
2023-01-01T12:35:44.367Z,96.57
2023-01-01T12:36:56.022Z,96.43
2023-01-01T12:38:13.116Z,97.05
2023-01-01T12:39:34.904Z,97.94
2023-01-01T12:41:02.183Z,98.79
2023-01-01T12:42:14.425Z,99.04
2023-01-01T12:43:43.675Z,98.56
2023-01-01T12:45:07.042Z,97.69
2023-01-01T12:46:24.947Z,96.57
2023-01-01T12:47:57.050Z,95.23
2023-01-01T12:49:15.707Z,95.13
2023-01-01T12:50:29.173Z,94.15
2023-01-01T12:52:05.728Z,95.25
2023-01-01T12:53:08.478Z,97.98
2023-01-01T12:54:35.761Z,98.76
2023-01-01T12:56:03.453Z,98.72
2023-01-01T12:57:29.506Z,99.75
2023-01-01T12:58:42.537Z,100.00
2023-01-01T12:59:50.785Z,100.00
2023-01-01T13:01:06.268Z,99.69
2023-01-01T13:02:22.078Z,99.48
2023-01-01T13:03:30.349Z,100.00
2023-01-01T13:04:33.323Z,100.00
2023-01-01T13:05:43.812Z,100.00
2023-01-01T13:07:06.606Z,100.00
2023-01-01T13:08:09.976Z,100.00
2023-01-01T13:09:29.999Z,100.00
2023-01-01T13:10:47.259Z,100.00
2023-01-01T13:12:10.882Z,100.00
2023-01-01T13:13:14.984Z,100.00
2023-01-01T13:14:18.022Z,100.00
2023-01-01T13:15:39.547Z,100.00
2023-01-01T13:16:49.464Z,100.00
2023-01-01T13:17:53.444Z,100.00
2023-01-01T13:19:02.459Z,100.00
2023-01-01T13:20:11.602Z,100.00
2023-01-01T13:21:21.463Z,100.00
2023-01-01T13:22:27.147Z,100.00
2023-01-01T13:23:30.191Z,100.00
2023-01-01T13:24:33.337Z,100.00
2023-01-01T13:25:36.569Z,100.00
2023-01-01T13:26:40.662Z,100.00
2023-01-01T13:27:56.033Z,100.00
2023-01-01T13:28:59.151Z,100.00
2023-01-01T13:30:02.045Z,100.00
2023-01-01T13:31:05.323Z,100.00
2023-01-01T13:32:09.662Z,100.00
2023-01-01T13:33:29.105Z,100.00
2023-01-01T13:34:35.689Z,100.00
2023-01-01T13:35:38.533Z,100.00
2023-01-01T13:36:41.464Z,100.00
2023-01-01T13:37:45.357Z,100.00
2023-01-01T13:38:52.489Z,100.00
2023-01-01T13:40:04.058Z,100.00
2023-01-01T13:41:26.965Z,100.00
2023-01-01T13:42:52.493Z,100.00
2023-01-01T13:44:01.243Z,100.00
2023-01-01T13:45:11.172Z,100.00
2023-01-01T13:46:15.081Z,100.00
2023-01-01T13:47:56.495Z,100.00
2023-01-01T13:49:20.837Z,100.00
2023-01-01T13:50:49.741Z,100.00
2023-01-01T13:52:07.909Z,100.00
2023-01-01T13:53:43.446Z,100.00
2023-01-01T13:55:07.374Z,100.00
2023-01-01T13:56:16.146Z,100.00
2023-01-01T13:58:07.530Z,100.00
2023-01-01T13:59:27.634Z,100.00
2023-01-01T14:00:53.966Z,100.00
2023-01-01T14:02:30.671Z,100.00
2023-01-01T14:03:41.474Z,100.00
2023-01-01T14:04:49.805Z,100.00
2023-01-01T14:06:02.668Z,100.00
2023-01-01T14:09:06.153Z,100.00
2023-01-01T14:10:16.572Z,100.00
2023-01-01T14:11:23.653Z,100.00
2023-01-01T14:12:26.650Z,100.00
2023-01-01T14:13:38.691Z,100.00
2023-01-01T14:14:43.485Z,100.00
2023-01-01T14:15:59.558Z,100.00
2023-01-01T14:17:07.408Z,100.00
2023-01-01T14:18:14.978Z,100.00
2023-01-01T14:19:17.978Z,100.00
2023-01-01T14:20:24.495Z,100.00
2023-01-01T14:21:32.122Z,100.00
2023-01-01T14:22:36.398Z,100.00
2023-01-01T14:23:50.268Z,100.00
2023-01-01T14:24:53.344Z,100.00
2023-01-01T14:25:56.713Z,100.00
2023-01-01T14:27:00.250Z,100.00
2023-01-01T14:28:03.599Z,100.00
2023-01-01T14:29:09.344Z,100.00
2023-01-01T14:30:18.961Z,100.00
2023-01-01T14:31:26.914Z,100.00
2023-01-01T14:32:33.314Z,100.00
2023-01-01T14:33:36.145Z,100.00
2023-01-01T14:34:39.430Z,100.00
2023-01-01T14:35:52.782Z,100.00
2023-01-01T14:37:01.545Z,100.00
2023-01-01T14:38:25.731Z,100.00
2023-01-01T14:39:34.908Z,100.00
2023-01-01T14:40:38.752Z,100.00
2023-01-01T14:41:43.926Z,100.00
2023-01-01T14:42:49.838Z,100.00
2023-01-01T14:43:55.589Z,100.00
2023-01-01T14:44:58.519Z,100.00
2023-01-01T14:46:06.061Z,100.00
2023-01-01T14:47:30.912Z,100.00
2023-01-01T14:48:35.381Z,100.00
2023-01-01T14:49:39.163Z,100.00
2023-01-01T14:50:45.542Z,100.00
2023-01-01T14:52:02.825Z,100.00